sensor_id;sensor_type;location;lat;lon;timestamp;P1;durP1;ratioP1;P2;durP2;ratioP2
36445;SDS011;22472;50.848;-1.216;2022-08-21T00:00:55;13.60;;;2.15;;
36445;SDS011;22472;50.848;-1.216;2022-08-21T00:03:22;11.70;;;1.45;;
36445;SDS011;22472;50.848;-1.216;2022-08-21T00:05:49;11.50;;;1.90;;
36445;SDS011;22472;50.848;-1.216;2022-08-21T00:08:17;13.73;;;1.75;;
36445;SDS011;22472;50.848;-1.216;2022-08-21T00:10:44;16.73;;;2.03;;
36445;SDS011;22472;50.848;-1.216;2022-08-21T00:13:14;14.73;;;2.15;;
36445;SDS011;22472;50.848;-1.216;2022-08-21T00:15:42;15.00;;;1.90;;
36445;SDS011;22472;50.848;-1.216;2022-08-21T00:18:09;14.32;;;1.73;;
36445;SDS011;22472;50.848;-1.216;2022-08-21T00:20:37;16.08;;;2.22;;
36445;SDS011;22472;50.848;-1.216;2022-08-21T00:23:05;19.83;;;2.67;;
36445;SDS011;22472;50.848;-1.216;2022-08-21T00:25:32;14.90;;;1.85;;
36445;SDS011;22472;50.848;-1.216;2022-08-21T00:28:00;16.05;;;2.55;;
36445;SDS011;22472;50.848;-1.216;2022-08-21T00:30:30;10.43;;;1.70;;
36445;SDS011;22472;50.848;-1.216;2022-08-21T00:32:57;10.68;;;1.88;;
36445;SDS011;22472;50.848;-1.216;2022-08-21T00:35:26;9.88;;;1.73;;
36445;SDS011;22472;50.848;-1.216;2022-08-21T00:37:56;16.40;;;2.50;;
36445;SDS011;22472;50.848;-1.216;2022-08-21T00:40:25;14.23;;;1.95;;
36445;SDS011;22472;50.848;-1.216;2022-08-21T00:42:56;10.35;;;1.90;;
36445;SDS011;22472;50.848;-1.216;2022-08-21T00:45:24;15.73;;;2.58;;
36445;SDS011;22472;50.848;-1.216;2022-08-21T00:47:54;15.45;;;2.42;;
36445;SDS011;22472;50.848;-1.216;2022-08-21T00:50:21;16.20;;;2.53;;
36445;SDS011;22472;50.848;-1.216;2022-08-21T00:52:50;17.92;;;2.35;;
36445;SDS011;22472;50.848;-1.216;2022-08-21T00:55:18;14.90;;;1.95;;
36445;SDS011;22472;50.848;-1.216;2022-08-21T00:57:47;17.02;;;2.42;;
36445;SDS011;22472;50.848;-1.216;2022-08-21T01:00:18;16.92;;;2.20;;
36445;SDS011;22472;50.848;-1.216;2022-08-21T01:05:15;15.43;;;2.03;;
36445;SDS011;22472;50.848;-1.216;2022-08-21T01:07:42;16.08;;;2.70;;
36445;SDS011;22472;50.848;-1.216;2022-08-21T01:10:10;12.27;;;1.75;;
36445;SDS011;22472;50.848;-1.216;2022-08-21T01:12:37;16.30;;;2.30;;
36445;SDS011;22472;50.848;-1.216;2022-08-21T01:15:06;11.70;;;2.00;;
36445;SDS011;22472;50.848;-1.216;2022-08-21T01:17:35;14.77;;;2.42;;
36445;SDS011;22472;50.848;-1.216;2022-08-21T01:20:04;12.82;;;2.15;;
36445;SDS011;22472;50.848;-1.216;2022-08-21T01:22:35;14.57;;;2.15;;
36445;SDS011;22472;50.848;-1.216;2022-08-21T01:25:03;18.00;;;2.25;;
36445;SDS011;22472;50.848;-1.216;2022-08-21T01:27:32;17.67;;;2.10;;
36445;SDS011;22472;50.848;-1.216;2022-08-21T01:30:03;14.07;;;1.77;;
36445;SDS011;22472;50.848;-1.216;2022-08-21T01:32:34;13.98;;;2.20;;
36445;SDS011;22472;50.848;-1.216;2022-08-21T01:35:03;9.77;;;1.75;;
36445;SDS011;22472;50.848;-1.216;2022-08-21T01:37:31;11.63;;;2.30;;
36445;SDS011;22472;50.848;-1.216;2022-08-21T01:40:00;15.27;;;2.13;;
36445;SDS011;22472;50.848;-1.216;2022-08-21T01:42:27;15.35;;;2.00;;
36445;SDS011;22472;50.848;-1.216;2022-08-21T01:44:54;15.55;;;1.95;;
36445;SDS011;22472;50.848;-1.216;2022-08-21T01:47:22;16.27;;;2.22;;
36445;SDS011;22472;50.848;-1.216;2022-08-21T01:49:49;14.45;;;2.33;;
36445;SDS011;22472;50.848;-1.216;2022-08-21T01:52:16;11.35;;;2.03;;
36445;SDS011;22472;50.848;-1.216;2022-08-21T01:54:43;12.45;;;2.08;;
36445;SDS011;22472;50.848;-1.216;2022-08-21T01:57:12;14.35;;;2.15;;
36445;SDS011;22472;50.848;-1.216;2022-08-21T01:59:39;17.75;;;2.47;;
36445;SDS011;22472;50.848;-1.216;2022-08-21T02:04:41;14.13;;;2.30;;
36445;SDS011;22472;50.848;-1.216;2022-08-21T02:07:08;10.65;;;1.90;;
36445;SDS011;22472;50.848;-1.216;2022-08-21T02:09:36;19.17;;;2.42;;
36445;SDS011;22472;50.848;-1.216;2022-08-21T02:12:03;14.27;;;2.17;;
36445;SDS011;22472;50.848;-1.216;2022-08-21T02:14:32;19.05;;;2.90;;
36445;SDS011;22472;50.848;-1.216;2022-08-21T02:16:59;11.82;;;2.10;;
36445;SDS011;22472;50.848;-1.216;2022-08-21T02:19:27;18.10;;;2.50;;
36445;SDS011;22472;50.848;-1.216;2022-08-21T02:21:54;15.70;;;2.30;;
36445;SDS011;22472;50.848;-1.216;2022-08-21T02:24:21;11.18;;;2.10;;
36445;SDS011;22472;50.848;-1.216;2022-08-21T02:26:48;9.95;;;2.00;;
36445;SDS011;22472;50.848;-1.216;2022-08-21T02:29:15;13.85;;;2.15;;
36445;SDS011;22472;50.848;-1.216;2022-08-21T02:31:43;8.70;;;1.85;;
36445;SDS011;22472;50.848;-1.216;2022-08-21T02:34:10;11.85;;;2.20;;
36445;SDS011;22472;50.848;-1.216;2022-08-21T02:36:37;13.45;;;1.90;;
36445;SDS011;22472;50.848;-1.216;2022-08-21T02:39:04;13.57;;;2.05;;
36445;SDS011;22472;50.848;-1.216;2022-08-21T02:41:31;16.17;;;2.05;;
36445;SDS011;22472;50.848;-1.216;2022-08-21T02:43:58;10.60;;;2.08;;
36445;SDS011;22472;50.848;-1.216;2022-08-21T02:46:25;11.50;;;1.90;;
36445;SDS011;22472;50.848;-1.216;2022-08-21T02:48:54;10.18;;;2.00;;
36445;SDS011;22472;50.848;-1.216;2022-08-21T02:51:21;9.57;;;1.60;;
36445;SDS011;22472;50.848;-1.216;2022-08-21T02:53:50;14.32;;;2.03;;
36445;SDS011;22472;50.848;-1.216;2022-08-21T02:56:19;10.70;;;1.98;;
36445;SDS011;22472;50.848;-1.216;2022-08-21T02:58:48;13.15;;;1.70;;
36445;SDS011;22472;50.848;-1.216;2022-08-21T03:01:17;16.27;;;1.92;;
36445;SDS011;22472;50.848;-1.216;2022-08-21T03:03:46;15.82;;;1.90;;
36445;SDS011;22472;50.848;-1.216;2022-08-21T03:06:18;17.38;;;2.20;;
36445;SDS011;22472;50.848;-1.216;2022-08-21T03:08:46;16.45;;;1.92;;
36445;SDS011;22472;50.848;-1.216;2022-08-21T03:11:14;10.80;;;2.03;;
36445;SDS011;22472;50.848;-1.216;2022-08-21T03:13:41;9.70;;;1.63;;
36445;SDS011;22472;50.848;-1.216;2022-08-21T03:16:09;13.30;;;1.80;;
36445;SDS011;22472;50.848;-1.216;2022-08-21T03:18:36;15.18;;;2.25;;
36445;SDS011;22472;50.848;-1.216;2022-08-21T03:21:03;12.82;;;2.08;;
36445;SDS011;22472;50.848;-1.216;2022-08-21T03:23:32;12.18;;;1.65;;
36445;SDS011;22472;50.848;-1.216;2022-08-21T03:25:59;14.77;;;1.65;;
36445;SDS011;22472;50.848;-1.216;2022-08-21T03:28:27;12.50;;;1.60;;
36445;SDS011;22472;50.848;-1.216;2022-08-21T03:30:54;11.50;;;1.52;;
36445;SDS011;22472;50.848;-1.216;2022-08-21T03:33:21;10.30;;;1.83;;
36445;SDS011;22472;50.848;-1.216;2022-08-21T03:35:52;10.27;;;1.25;;
36445;SDS011;22472;50.848;-1.216;2022-08-21T03:38:26;13.93;;;2.03;;
36445;SDS011;22472;50.848;-1.216;2022-08-21T03:40:57;13.68;;;1.95;;
36445;SDS011;22472;50.848;-1.216;2022-08-21T03:43:25;12.63;;;1.65;;
36445;SDS011;22472;50.848;-1.216;2022-08-21T03:45:52;8.82;;;1.60;;
36445;SDS011;22472;50.848;-1.216;2022-08-21T03:48:19;8.30;;;1.38;;
36445;SDS011;22472;50.848;-1.216;2022-08-21T03:50:46;10.18;;;1.70;;
36445;SDS011;22472;50.848;-1.216;2022-08-21T03:53:15;11.48;;;1.98;;
36445;SDS011;22472;50.848;-1.216;2022-08-21T03:55:43;17.40;;;2.30;;
36445;SDS011;22472;50.848;-1.216;2022-08-21T03:58:12;12.10;;;1.90;;
36445;SDS011;22472;50.848;-1.216;2022-08-21T04:00:39;12.27;;;2.13;;
36445;SDS011;22472;50.848;-1.216;2022-08-21T04:03:06;12.82;;;2.40;;
36445;SDS011;22472;50.848;-1.216;2022-08-21T04:05:33;11.07;;;1.95;;
36445;SDS011;22472;50.848;-1.216;2022-08-21T04:08:03;10.25;;;1.95;;
36445;SDS011;22472;50.848;-1.216;2022-08-21T04:10:32;15.32;;;2.67;;
36445;SDS011;22472;50.848;-1.216;2022-08-21T04:13:00;16.23;;;2.47;;
36445;SDS011;22472;50.848;-1.216;2022-08-21T04:15:29;13.43;;;1.95;;
36445;SDS011;22472;50.848;-1.216;2022-08-21T04:17:56;11.30;;;2.20;;
36445;SDS011;22472;50.848;-1.216;2022-08-21T04:20:24;11.40;;;1.90;;
36445;SDS011;22472;50.848;-1.216;2022-08-21T04:22:51;7.90;;;1.88;;
36445;SDS011;22472;50.848;-1.216;2022-08-21T04:25:19;13.57;;;2.00;;
36445;SDS011;22472;50.848;-1.216;2022-08-21T04:27:48;11.43;;;1.70;;
36445;SDS011;22472;50.848;-1.216;2022-08-21T04:30:16;9.05;;;1.70;;
36445;SDS011;22472;50.848;-1.216;2022-08-21T04:32:45;10.32;;;1.60;;
36445;SDS011;22472;50.848;-1.216;2022-08-21T04:35:13;11.95;;;2.17;;
36445;SDS011;22472;50.848;-1.216;2022-08-21T04:37:41;14.32;;;1.85;;
36445;SDS011;22472;50.848;-1.216;2022-08-21T04:40:09;8.23;;;1.58;;
36445;SDS011;22472;50.848;-1.216;2022-08-21T04:42:40;9.20;;;1.70;;
36445;SDS011;22472;50.848;-1.216;2022-08-21T04:45:15;15.77;;;1.85;;
36445;SDS011;22472;50.848;-1.216;2022-08-21T04:47:46;13.35;;;2.15;;
36445;SDS011;22472;50.848;-1.216;2022-08-21T04:50:15;12.60;;;2.00;;
36445;SDS011;22472;50.848;-1.216;2022-08-21T04:52:42;12.60;;;1.70;;
36445;SDS011;22472;50.848;-1.216;2022-08-21T04:55:09;11.65;;;2.30;;
36445;SDS011;22472;50.848;-1.216;2022-08-21T04:57:37;9.65;;;1.73;;
36445;SDS011;22472;50.848;-1.216;2022-08-21T05:00:06;8.93;;;1.67;;
36445;SDS011;22472;50.848;-1.216;2022-08-21T05:02:34;12.05;;;1.77;;
36445;SDS011;22472;50.848;-1.216;2022-08-21T05:05:04;13.95;;;2.13;;
36445;SDS011;22472;50.848;-1.216;2022-08-21T05:07:32;8.55;;;1.40;;
36445;SDS011;22472;50.848;-1.216;2022-08-21T05:10:00;8.02;;;1.67;;
36445;SDS011;22472;50.848;-1.216;2022-08-21T05:12:27;7.90;;;1.40;;
36445;SDS011;22472;50.848;-1.216;2022-08-21T05:14:56;10.10;;;1.55;;
36445;SDS011;22472;50.848;-1.216;2022-08-21T05:17:24;11.13;;;1.73;;
36445;SDS011;22472;50.848;-1.216;2022-08-21T05:19:51;9.00;;;1.55;;
36445;SDS011;22472;50.848;-1.216;2022-08-21T05:22:22;11.18;;;1.55;;
36445;SDS011;22472;50.848;-1.216;2022-08-21T05:24:50;9.38;;;1.70;;
36445;SDS011;22472;50.848;-1.216;2022-08-21T05:27:17;8.85;;;1.40;;
36445;SDS011;22472;50.848;-1.216;2022-08-21T05:29:44;13.93;;;1.98;;
36445;SDS011;22472;50.848;-1.216;2022-08-21T05:32:12;9.93;;;1.65;;
36445;SDS011;22472;50.848;-1.216;2022-08-21T05:34:40;10.13;;;1.58;;
36445;SDS011;22472;50.848;-1.216;2022-08-21T05:37:09;11.32;;;1.85;;
36445;SDS011;22472;50.848;-1.216;2022-08-21T05:39:38;13.60;;;1.83;;
36445;SDS011;22472;50.848;-1.216;2022-08-21T05:42:06;11.07;;;1.35;;
36445;SDS011;22472;50.848;-1.216;2022-08-21T05:44:33;10.30;;;1.80;;
36445;SDS011;22472;50.848;-1.216;2022-08-21T05:47:04;9.50;;;1.67;;
36445;SDS011;22472;50.848;-1.216;2022-08-21T05:49:32;12.40;;;1.80;;
36445;SDS011;22472;50.848;-1.216;2022-08-21T05:51:59;10.90;;;1.50;;
36445;SDS011;22472;50.848;-1.216;2022-08-21T05:54:26;10.38;;;1.70;;
36445;SDS011;22472;50.848;-1.216;2022-08-21T05:56:55;11.68;;;1.77;;
36445;SDS011;22472;50.848;-1.216;2022-08-21T05:59:22;8.30;;;1.55;;
36445;SDS011;22472;50.848;-1.216;2022-08-21T06:01:49;11.05;;;1.38;;
36445;SDS011;22472;50.848;-1.216;2022-08-21T06:04:18;9.68;;;1.30;;
36445;SDS011;22472;50.848;-1.216;2022-08-21T06:06:45;7.45;;;1.20;;
36445;SDS011;22472;50.848;-1.216;2022-08-21T06:09:12;9.43;;;1.38;;
36445;SDS011;22472;50.848;-1.216;2022-08-21T06:11:39;12.93;;;1.48;;
36445;SDS011;22472;50.848;-1.216;2022-08-21T06:14:08;10.00;;;1.40;;
36445;SDS011;22472;50.848;-1.216;2022-08-21T06:16:35;8.90;;;1.55;;
36445;SDS011;22472;50.848;-1.216;2022-08-21T06:19:02;8.07;;;1.23;;
36445;SDS011;22472;50.848;-1.216;2022-08-21T06:21:29;9.85;;;1.60;;
36445;SDS011;22472;50.848;-1.216;2022-08-21T06:23:57;10.38;;;1.65;;
36445;SDS011;22472;50.848;-1.216;2022-08-21T06:26:24;8.75;;;1.30;;
36445;SDS011;22472;50.848;-1.216;2022-08-21T06:28:51;11.27;;;1.58;;
36445;SDS011;22472;50.848;-1.216;2022-08-21T06:31:21;10.25;;;1.50;;
36445;SDS011;22472;50.848;-1.216;2022-08-21T06:33:49;9.70;;;1.40;;
36445;SDS011;22472;50.848;-1.216;2022-08-21T06:36:17;10.75;;;1.40;;
36445;SDS011;22472;50.848;-1.216;2022-08-21T06:38:45;7.68;;;1.02;;
36445;SDS011;22472;50.848;-1.216;2022-08-21T06:41:13;10.57;;;1.50;;
36445;SDS011;22472;50.848;-1.216;2022-08-21T06:43:40;8.70;;;1.20;;
36445;SDS011;22472;50.848;-1.216;2022-08-21T06:46:07;8.40;;;1.15;;
36445;SDS011;22472;50.848;-1.216;2022-08-21T06:48:35;5.78;;;1.02;;
36445;SDS011;22472;50.848;-1.216;2022-08-21T06:51:03;13.02;;;1.75;;
36445;SDS011;22472;50.848;-1.216;2022-08-21T06:53:30;5.70;;;1.13;;
36445;SDS011;22472;50.848;-1.216;2022-08-21T06:55:57;5.32;;;1.08;;
36445;SDS011;22472;50.848;-1.216;2022-08-21T06:58:25;6.50;;;1.13;;
36445;SDS011;22472;50.848;-1.216;2022-08-21T07:00:52;9.05;;;1.33;;
36445;SDS011;22472;50.848;-1.216;2022-08-21T07:03:20;10.05;;;1.38;;
36445;SDS011;22472;50.848;-1.216;2022-08-21T07:05:50;8.13;;;1.65;;
36445;SDS011;22472;50.848;-1.216;2022-08-21T07:08:17;10.27;;;1.30;;
36445;SDS011;22472;50.848;-1.216;2022-08-21T07:10:44;6.68;;;0.90;;
36445;SDS011;22472;50.848;-1.216;2022-08-21T07:13:12;9.27;;;1.20;;
36445;SDS011;22472;50.848;-1.216;2022-08-21T07:15:40;6.53;;;0.98;;
36445;SDS011;22472;50.848;-1.216;2022-08-21T07:18:07;8.50;;;1.15;;
36445;SDS011;22472;50.848;-1.216;2022-08-21T07:20:34;8.15;;;1.48;;
36445;SDS011;22472;50.848;-1.216;2022-08-21T07:23:03;11.82;;;1.38;;
36445;SDS011;22472;50.848;-1.216;2022-08-21T07:25:33;10.77;;;1.40;;
36445;SDS011;22472;50.848;-1.216;2022-08-21T07:28:00;7.88;;;1.27;;
36445;SDS011;22472;50.848;-1.216;2022-08-21T07:30:27;9.95;;;1.48;;
36445;SDS011;22472;50.848;-1.216;2022-08-21T07:32:54;9.18;;;1.50;;
36445;SDS011;22472;50.848;-1.216;2022-08-21T07:35:22;10.00;;;1.48;;
36445;SDS011;22472;50.848;-1.216;2022-08-21T07:37:49;5.40;;;0.95;;
36445;SDS011;22472;50.848;-1.216;2022-08-21T07:40:17;6.47;;;1.00;;
36445;SDS011;22472;50.848;-1.216;2022-08-21T07:42:47;5.97;;;1.00;;
36445;SDS011;22472;50.848;-1.216;2022-08-21T07:45:17;7.30;;;1.30;;
36445;SDS011;22472;50.848;-1.216;2022-08-21T07:47:46;9.50;;;1.38;;
36445;SDS011;22472;50.848;-1.216;2022-08-21T07:50:13;7.72;;;1.10;;
36445;SDS011;22472;50.848;-1.216;2022-08-21T07:52:41;7.55;;;1.30;;
36445;SDS011;22472;50.848;-1.216;2022-08-21T07:55:10;7.82;;;1.20;;
36445;SDS011;22472;50.848;-1.216;2022-08-21T07:57:40;8.98;;;1.42;;
36445;SDS011;22472;50.848;-1.216;2022-08-21T08:00:09;8.75;;;1.33;;
36445;SDS011;22472;50.848;-1.216;2022-08-21T08:02:38;9.57;;;1.40;;
36445;SDS011;22472;50.848;-1.216;2022-08-21T08:05:06;5.88;;;1.00;;
36445;SDS011;22472;50.848;-1.216;2022-08-21T08:07:36;7.68;;;1.10;;
36445;SDS011;22472;50.848;-1.216;2022-08-21T08:10:04;8.82;;;1.10;;
36445;SDS011;22472;50.848;-1.216;2022-08-21T08:12:33;6.57;;;1.08;;
36445;SDS011;22472;50.848;-1.216;2022-08-21T08:15:02;9.13;;;1.45;;
36445;SDS011;22472;50.848;-1.216;2022-08-21T08:17:29;6.43;;;1.38;;
36445;SDS011;22472;50.848;-1.216;2022-08-21T08:19:57;6.63;;;1.05;;
36445;SDS011;22472;50.848;-1.216;2022-08-21T08:22:26;8.38;;;0.98;;
36445;SDS011;22472;50.848;-1.216;2022-08-21T08:24:53;6.70;;;1.08;;
36445;SDS011;22472;50.848;-1.216;2022-08-21T08:27:21;9.52;;;1.20;;
36445;SDS011;22472;50.848;-1.216;2022-08-21T08:29:48;11.13;;;1.38;;
36445;SDS011;22472;50.848;-1.216;2022-08-21T08:32:17;10.23;;;0.90;;
36445;SDS011;22472;50.848;-1.216;2022-08-21T08:34:45;8.02;;;1.00;;
36445;SDS011;22472;50.848;-1.216;2022-08-21T08:37:13;8.60;;;0.90;;
36445;SDS011;22472;50.848;-1.216;2022-08-21T08:39:41;7.45;;;1.30;;
36445;SDS011;22472;50.848;-1.216;2022-08-21T08:42:11;6.60;;;1.00;;
36445;SDS011;22472;50.848;-1.216;2022-08-21T08:44:39;8.90;;;0.93;;
36445;SDS011;22472;50.848;-1.216;2022-08-21T08:47:07;8.95;;;1.20;;
36445;SDS011;22472;50.848;-1.216;2022-08-21T08:49:37;6.40;;;0.90;;
36445;SDS011;22472;50.848;-1.216;2022-08-21T08:52:14;7.35;;;1.05;;
36445;SDS011;22472;50.848;-1.216;2022-08-21T08:54:48;9.95;;;0.90;;
36445;SDS011;22472;50.848;-1.216;2022-08-21T08:57:22;10.02;;;1.00;;
36445;SDS011;22472;50.848;-1.216;2022-08-21T08:59:51;9.60;;;1.15;;
36445;SDS011;22472;50.848;-1.216;2022-08-21T09:02:20;7.50;;;1.00;;
36445;SDS011;22472;50.848;-1.216;2022-08-21T09:04:50;8.43;;;1.33;;
36445;SDS011;22472;50.848;-1.216;2022-08-21T09:07:19;6.00;;;0.80;;
36445;SDS011;22472;50.848;-1.216;2022-08-21T09:10:03;5.90;;;0.90;;
36445;SDS011;22472;50.848;-1.216;2022-08-21T09:12:38;7.15;;;0.90;;
36445;SDS011;22472;50.848;-1.216;2022-08-21T09:15:15;7.13;;;0.90;;
36445;SDS011;22472;50.848;-1.216;2022-08-21T09:17:57;10.02;;;1.00;;
36445;SDS011;22472;50.848;-1.216;2022-08-21T09:20:44;7.00;;;1.05;;
36445;SDS011;22472;50.848;-1.216;2022-08-21T09:23:25;6.65;;;0.93;;
36445;SDS011;22472;50.848;-1.216;2022-08-21T09:25:59;8.43;;;1.05;;
36445;SDS011;22472;50.848;-1.216;2022-08-21T09:28:32;6.82;;;1.10;;
36445;SDS011;22472;50.848;-1.216;2022-08-21T09:31:00;10.10;;;1.20;;
36445;SDS011;22472;50.848;-1.216;2022-08-21T09:33:29;8.30;;;1.37;;
36445;SDS011;22472;50.848;-1.216;2022-08-21T09:35:57;10.02;;;1.13;;
36445;SDS011;22472;50.848;-1.216;2022-08-21T09:38:27;13.65;;;1.20;;
36445;SDS011;22472;50.848;-1.216;2022-08-21T09:40:57;12.00;;;1.30;;
36445;SDS011;22472;50.848;-1.216;2022-08-21T09:43:26;5.80;;;0.95;;
36445;SDS011;22472;50.848;-1.216;2022-08-21T09:46:02;6.72;;;0.88;;
36445;SDS011;22472;50.848;-1.216;2022-08-21T09:48:41;8.07;;;1.20;;
36445;SDS011;22472;50.848;-1.216;2022-08-21T09:51:13;6.57;;;0.63;;
36445;SDS011;22472;50.848;-1.216;2022-08-21T09:53:44;7.25;;;1.27;;
36445;SDS011;22472;50.848;-1.216;2022-08-21T09:56:19;11.25;;;1.17;;
36445;SDS011;22472;50.848;-1.216;2022-08-21T09:59:14;9.57;;;1.10;;
36445;SDS011;22472;50.848;-1.216;2022-08-21T10:01:44;7.88;;;0.60;;
36445;SDS011;22472;50.848;-1.216;2022-08-21T10:04:13;8.02;;;0.88;;
36445;SDS011;22472;50.848;-1.216;2022-08-21T10:06:42;7.57;;;0.93;;
36445;SDS011;22472;50.848;-1.216;2022-08-21T10:09:10;7.43;;;1.05;;
36445;SDS011;22472;50.848;-1.216;2022-08-21T10:11:38;6.88;;;1.00;;
36445;SDS011;22472;50.848;-1.216;2022-08-21T10:14:10;6.60;;;0.98;;
36445;SDS011;22472;50.848;-1.216;2022-08-21T10:17:01;6.32;;;1.05;;
36445;SDS011;22472;50.848;-1.216;2022-08-21T10:19:35;4.95;;;0.70;;
36445;SDS011;22472;50.848;-1.216;2022-08-21T10:22:14;6.20;;;1.02;;
36445;SDS011;22472;50.848;-1.216;2022-08-21T10:24:57;5.07;;;1.08;;
36445;SDS011;22472;50.848;-1.216;2022-08-21T10:27:33;7.57;;;1.00;;
36445;SDS011;22472;50.848;-1.216;2022-08-21T10:30:10;11.30;;;1.08;;
36445;SDS011;22472;50.848;-1.216;2022-08-21T10:32:43;6.22;;;1.00;;
36445;SDS011;22472;50.848;-1.216;2022-08-21T10:35:21;5.73;;;1.20;;
36445;SDS011;22472;50.848;-1.216;2022-08-21T10:37:56;5.05;;;0.88;;
36445;SDS011;22472;50.848;-1.216;2022-08-21T10:40:31;4.63;;;0.80;;
36445;SDS011;22472;50.848;-1.216;2022-08-21T10:43:08;6.45;;;0.90;;
36445;SDS011;22472;50.848;-1.216;2022-08-21T10:45:49;6.65;;;1.00;;
36445;SDS011;22472;50.848;-1.216;2022-08-21T10:48:24;5.07;;;1.00;;
36445;SDS011;22472;50.848;-1.216;2022-08-21T10:50:59;7.78;;;1.05;;
36445;SDS011;22472;50.848;-1.216;2022-08-21T10:53:47;6.38;;;0.88;;
36445;SDS011;22472;50.848;-1.216;2022-08-21T10:56:23;8.25;;;1.23;;
36445;SDS011;22472;50.848;-1.216;2022-08-21T11:01:53;5.70;;;0.93;;
36445;SDS011;22472;50.848;-1.216;2022-08-21T11:04:28;8.07;;;1.27;;
36445;SDS011;22472;50.848;-1.216;2022-08-21T11:06:59;5.80;;;1.00;;
36445;SDS011;22472;50.848;-1.216;2022-08-21T11:09:32;7.10;;;0.90;;
36445;SDS011;22472;50.848;-1.216;2022-08-21T11:12:00;9.10;;;1.40;;
36445;SDS011;22472;50.848;-1.216;2022-08-21T11:14:36;7.32;;;0.90;;
36445;SDS011;22472;50.848;-1.216;2022-08-21T11:17:13;7.70;;;1.13;;
36445;SDS011;22472;50.848;-1.216;2022-08-21T11:19:45;5.20;;;0.82;;
36445;SDS011;22472;50.848;-1.216;2022-08-21T11:22:15;5.40;;;0.70;;
36445;SDS011;22472;50.848;-1.216;2022-08-21T11:24:49;7.55;;;0.95;;
36445;SDS011;22472;50.848;-1.216;2022-08-21T11:27:23;4.43;;;0.98;;
36445;SDS011;22472;50.848;-1.216;2022-08-21T11:29:53;6.93;;;0.95;;
36445;SDS011;22472;50.848;-1.216;2022-08-21T11:32:29;4.88;;;0.95;;
36445;SDS011;22472;50.848;-1.216;2022-08-21T11:35:20;6.28;;;0.65;;
36445;SDS011;22472;50.848;-1.216;2022-08-21T11:38:01;6.32;;;1.10;;
36445;SDS011;22472;50.848;-1.216;2022-08-21T11:40:43;7.07;;;0.93;;
36445;SDS011;22472;50.848;-1.216;2022-08-21T11:43:21;4.35;;;0.80;;
36445;SDS011;22472;50.848;-1.216;2022-08-21T11:46:03;6.93;;;1.02;;
36445;SDS011;22472;50.848;-1.216;2022-08-21T11:48:46;10.32;;;1.15;;
36445;SDS011;22472;50.848;-1.216;2022-08-21T11:53:55;7.07;;;1.20;;
36445;SDS011;22472;50.848;-1.216;2022-08-21T11:56:34;7.70;;;1.10;;
36445;SDS011;22472;50.848;-1.216;2022-08-21T11:59:07;7.53;;;1.00;;
36445;SDS011;22472;50.848;-1.216;2022-08-21T12:01:38;7.97;;;1.10;;
36445;SDS011;22472;50.848;-1.216;2022-08-21T12:04:16;6.90;;;0.90;;
36445;SDS011;22472;50.848;-1.216;2022-08-21T12:06:46;5.82;;;0.75;;
36445;SDS011;22472;50.848;-1.216;2022-08-21T12:09:28;6.10;;;0.90;;
36445;SDS011;22472;50.848;-1.216;2022-08-21T12:12:02;4.90;;;0.80;;
36445;SDS011;22472;50.848;-1.216;2022-08-21T12:14:38;5.75;;;1.10;;
36445;SDS011;22472;50.848;-1.216;2022-08-21T12:17:08;6.22;;;1.00;;
36445;SDS011;22472;50.848;-1.216;2022-08-21T12:19:44;4.95;;;1.00;;
36445;SDS011;22472;50.848;-1.216;2022-08-21T12:22:12;6.05;;;1.10;;
36445;SDS011;22472;50.848;-1.216;2022-08-21T12:24:41;7.38;;;1.30;;
36445;SDS011;22472;50.848;-1.216;2022-08-21T12:27:18;12.07;;;1.25;;
36445;SDS011;22472;50.848;-1.216;2022-08-21T12:32:23;7.80;;;1.15;;
36445;SDS011;22472;50.848;-1.216;2022-08-21T12:34:52;10.13;;;1.40;;
36445;SDS011;22472;50.848;-1.216;2022-08-21T12:37:24;9.82;;;1.27;;
36445;SDS011;22472;50.848;-1.216;2022-08-21T12:40:01;8.73;;;1.33;;
36445;SDS011;22472;50.848;-1.216;2022-08-21T12:42:33;11.27;;;1.33;;
36445;SDS011;22472;50.848;-1.216;2022-08-21T12:45:09;7.88;;;1.10;;
36445;SDS011;22472;50.848;-1.216;2022-08-21T12:47:44;9.98;;;1.52;;
36445;SDS011;22472;50.848;-1.216;2022-08-21T12:50:16;9.20;;;1.40;;
36445;SDS011;22472;50.848;-1.216;2022-08-21T12:52:48;7.93;;;1.33;;
36445;SDS011;22472;50.848;-1.216;2022-08-21T12:55:25;7.32;;;1.25;;
36445;SDS011;22472;50.848;-1.216;2022-08-21T12:57:55;9.95;;;1.30;;
36445;SDS011;22472;50.848;-1.216;2022-08-21T13:00:27;9.75;;;1.60;;
36445;SDS011;22472;50.848;-1.216;2022-08-21T13:02:55;9.95;;;1.70;;
36445;SDS011;22472;50.848;-1.216;2022-08-21T13:05:28;8.25;;;1.15;;
36445;SDS011;22472;50.848;-1.216;2022-08-21T13:07:57;10.05;;;1.38;;
36445;SDS011;22472;50.848;-1.216;2022-08-21T13:10:25;9.93;;;1.55;;
36445;SDS011;22472;50.848;-1.216;2022-08-21T13:12:57;9.02;;;1.42;;
36445;SDS011;22472;50.848;-1.216;2022-08-21T13:15:26;8.73;;;1.48;;
36445;SDS011;22472;50.848;-1.216;2022-08-21T13:17:56;9.15;;;1.60;;
36445;SDS011;22472;50.848;-1.216;2022-08-21T13:20:28;10.10;;;1.50;;
36445;SDS011;22472;50.848;-1.216;2022-08-21T13:22:57;7.70;;;1.48;;
36445;SDS011;22472;50.848;-1.216;2022-08-21T13:25:25;7.03;;;1.33;;
36445;SDS011;22472;50.848;-1.216;2022-08-21T13:28:00;8.77;;;1.08;;
36445;SDS011;22472;50.848;-1.216;2022-08-21T13:30:30;10.70;;;1.40;;
36445;SDS011;22472;50.848;-1.216;2022-08-21T13:32:59;13.15;;;1.60;;
36445;SDS011;22472;50.848;-1.216;2022-08-21T13:37:57;9.55;;;1.20;;
36445;SDS011;22472;50.848;-1.216;2022-08-21T13:40:26;8.82;;;1.13;;
36445;SDS011;22472;50.848;-1.216;2022-08-21T13:42:57;8.25;;;1.30;;
36445;SDS011;22472;50.848;-1.216;2022-08-21T13:45:29;9.18;;;1.40;;
36445;SDS011;22472;50.848;-1.216;2022-08-21T13:47:59;6.47;;;1.38;;
36445;SDS011;22472;50.848;-1.216;2022-08-21T13:50:27;7.40;;;1.20;;
36445;SDS011;22472;50.848;-1.216;2022-08-21T13:52:56;7.55;;;1.15;;
36445;SDS011;22472;50.848;-1.216;2022-08-21T13:55:25;8.88;;;1.48;;
36445;SDS011;22472;50.848;-1.216;2022-08-21T13:58:02;7.97;;;1.45;;
36445;SDS011;22472;50.848;-1.216;2022-08-21T14:00:32;10.10;;;1.17;;
36445;SDS011;22472;50.848;-1.216;2022-08-21T14:03:04;6.78;;;1.10;;
36445;SDS011;22472;50.848;-1.216;2022-08-21T14:05:34;7.88;;;1.00;;
36445;SDS011;22472;50.848;-1.216;2022-08-21T14:08:04;10.50;;;1.45;;
36445;SDS011;22472;50.848;-1.216;2022-08-21T14:10:35;6.72;;;1.00;;
36445;SDS011;22472;50.848;-1.216;2022-08-21T14:13:07;8.20;;;1.40;;
36445;SDS011;22472;50.848;-1.216;2022-08-21T14:15:44;5.47;;;1.10;;
36445;SDS011;22472;50.848;-1.216;2022-08-21T14:18:21;8.32;;;1.40;;
36445;SDS011;22472;50.848;-1.216;2022-08-21T14:20:50;7.80;;;1.15;;
36445;SDS011;22472;50.848;-1.216;2022-08-21T14:23:23;10.55;;;1.02;;
36445;SDS011;22472;50.848;-1.216;2022-08-21T14:25:51;8.30;;;1.52;;
36445;SDS011;22472;50.848;-1.216;2022-08-21T14:28:19;5.53;;;1.08;;
36445;SDS011;22472;50.848;-1.216;2022-08-21T14:30:52;8.07;;;1.27;;
36445;SDS011;22472;50.848;-1.216;2022-08-21T14:33:23;7.32;;;1.40;;
36445;SDS011;22472;50.848;-1.216;2022-08-21T14:35:52;6.40;;;1.00;;
36445;SDS011;22472;50.848;-1.216;2022-08-21T14:38:22;6.90;;;1.33;;
36445;SDS011;22472;50.848;-1.216;2022-08-21T14:40:52;6.30;;;1.02;;
36445;SDS011;22472;50.848;-1.216;2022-08-21T14:43:22;6.78;;;1.48;;
36445;SDS011;22472;50.848;-1.216;2022-08-21T14:45:53;5.80;;;1.20;;
36445;SDS011;22472;50.848;-1.216;2022-08-21T14:48:21;7.63;;;1.25;;
36445;SDS011;22472;50.848;-1.216;2022-08-21T14:50:48;8.48;;;1.65;;
36445;SDS011;22472;50.848;-1.216;2022-08-21T14:53:15;5.20;;;1.20;;
36445;SDS011;22472;50.848;-1.216;2022-08-21T14:55:42;8.07;;;1.13;;
36445;SDS011;22472;50.848;-1.216;2022-08-21T14:58:27;6.72;;;1.10;;
36445;SDS011;22472;50.848;-1.216;2022-08-21T15:00:55;7.70;;;1.15;;